Appleton, Idaho
Current Conditions -  °F | °C
As of 11:44 PM on Tuesday 27 Jan 2015 (Local Time) from KJER Reporting Station
Light Rain Light Rain  
Wind Chill: 32°   Ceiling: 200
Heat Index: 39°   Visibility: 0.5mi
Dew Point: 38°   Wind: 10mph
Humidity: 96%   Direction: 230°SW
Pressure: 30.16"   Gusts: NA
Location:  42.7238°N, 114.338°W
Report Text: KJER 280644Z AUTO 23009KT 1/2SM -RA FG VV002 04/03 A3016 RMK AO2 P0002 T00390033
Loading
Personal Weather Stations






























Interactive Weather Map New forecast layout! Learn more

10-Day Weather Forecast

Advertisements
Track Severe Weather on mobile